| time (UTC) | temp F | wind direction | speed MPH | gust MPH | rain 1hr in | rain 24hr in | rain mn in | humidity % | barometer mb |
| 20260509214501 | 62 | 239 | 1.0 | 6.0 | 0.00 | 0.00 | 0.00 | 71 | 1020.5 |
| 20260509213006 | 61 | 214 | 2.0 | 5.0 | 0.00 | 0.00 | 0.00 | 69 | 1020.7 |
| 20260509211508 | 62 | 237 | 1.0 | 5.0 | 0.00 | 0.00 | 0.00 | 69 | 1020.7 |
| 20260509210005 | 61 | 233 | 0.0 | 4.0 | 0.00 | 0.00 | 0.00 | 69 | 1020.7 |
| 20260509204506 | 59 | 209 | 2.0 | 6.0 | 0.00 | 0.00 | 0.00 | 73 | 1021.1 |
| 20260509203010 | 59 | 255 | 3.0 | 6.0 | 0.00 | 0.00 | 0.00 | 75 | 1021.4 |
| 20260509201514 | 59 | 255 | 3.0 | 7.0 | 0.00 | 0.00 | 0.00 | 73 | 1021.4 |
| 20260509200121 | 59 | 220 | 2.0 | 5.0 | 0.00 | 0.00 | 0.00 | 72 | 1021.2 |
| 20260509194506 | 60 | 328 | 1.0 | 5.0 | 0.00 | 0.00 | 0.00 | 73 | 1021.2 |
| 20260509193009 | 59 | 215 | 3.0 | 7.0 | 0.00 | 0.00 | 0.00 | 74 | 1021.6 |
| 20260509191512 | 58 | 280 | 3.0 | 7.0 | 0.00 | 0.00 | 0.00 | 74 | 1021.7 |
| 20260509190119 | 58 | 195 | 2.0 | 7.0 | 0.00 | 0.00 | 0.00 | 75 | 1021.8 |
| 20260509184604 | 58 | 230 | 2.0 | 6.0 | 0.00 | 0.00 | 0.00 | 76 | 1021.9 |
| 20260509183004 | 59 | 243 | 3.0 | 5.0 | 0.00 | 0.00 | 0.00 | 75 | 1021.9 |
| 20260509181508 | 59 | 218 | 1.0 | 5.0 | 0.00 | 0.00 | 0.00 | 74 | 1021.9 |
| 20260509180114 | 59 | 340 | 0.0 | 4.0 | 0.00 | 0.00 | 0.00 | 76 | 1022.0 |
| 20260509174601 | 58 | 254 | 0.0 | 5.0 | 0.00 | 0.00 | 0.00 | 75 | 1021.9 |
| 20260509173110 | 59 | 326 | 0.0 | 6.0 | 0.00 | 0.00 | 0.00 | 76 | 1022.1 |
| 20260509171622 | 58 | 328 | 0.0 | 4.0 | 0.00 | 0.00 | 0.00 | 76 | 1022.1 |
| 20260509170011 | 58 | 236 | 0.0 | 5.0 | 0.00 | 0.00 | 0.00 | 75 | 1022.4 |
| 20260509164507 | 57 | 326 | 1.0 | 4.0 | 0.00 | 0.00 | 0.00 | 77 | 1022.3 |
| 20260509163018 | 57 | 349 | 1.0 | 4.0 | 0.00 | 0.00 | 0.00 | 77 | 1022.4 |
| 20260509161520 | 58 | 360 | 0.0 | 3.0 | 0.00 | 0.00 | 0.00 | 78 | 1022.4 |
| 20260509160018 | 57 | 273 | 0.0 | 3.0 | 0.00 | 0.00 | 0.00 | 77 | 1022.5 |
| 20260509154517 | 57 | 298 | 0.0 | 3.0 | 0.00 | 0.00 | 0.00 | 77 | 1022.6 |
| 20260509153021 | 57 | 336 | 0.0 | 2.0 | 0.00 | 0.00 | 0.00 | 76 | 1022.8 |
| 20260509151525 | 57 | 264 | 0.0 | 1.0 | 0.00 | 0.00 | 0.00 | 76 | 1022.7 |
| 20260509150012 | 58 | 274 | 0.0 | 1.0 | 0.00 | 0.00 | 0.00 | 78 | 1022.7 |
| 20260509144516 | 55 | 196 | 0.0 | 0.0 | 0.00 | 0.00 | 0.00 | 86 | 1022.9 |
| 20260509143020 | 52 | 196 | 0.0 | 0.0 | 0.00 | 0.00 | 0.00 | 90 | 1023.0 |
| 20260509141533 | 49 | 196 | 0.0 | 0.0 | 0.00 | 0.00 | 0.00 | 92 | 1022.9 |
| 20260509140010 | 47 | 196 | 0.0 | 0.0 | 0.00 | 0.00 | 0.00 | 92 | 1023.1 |
| 20260509134514 | 47 | 196 | 0.0 | 0.0 | 0.00 | 0.00 | 0.00 | 92 | 1022.9 |
| 20260509133017 | 47 | 196 | 0.0 | 0.0 | 0.00 | 0.00 | 0.00 | 92 | 1023.1 |
| 20260509131520 | 47 | 196 | 0.0 | 0.0 | 0.00 | 0.00 | 0.00 | 92 | 1023.1 |
| 20260509130007 | 46 | 196 | 0.0 | 0.0 | 0.00 | 0.00 | 0.00 | 92 | 1022.9 |
| 20260509124527 | 46 | 196 | 0.0 | 0.0 | 0.00 | 0.00 | 0.00 | 91 | 1023.0 |
| 20260509123029 | 47 | 196 | 0.0 | 0.0 | 0.00 | 0.00 | 0.00 | 91 | 1022.9 |
| 20260509121530 | 47 | 196 | 0.0 | 0.0 | 0.00 | 0.00 | 0.00 | 91 | 1022.9 |
| 20260509120014 | 47 | 196 | 0.0 | 0.0 | 0.00 | 0.00 | 0.00 | 92 | 1023.1 |
| 20260509114517 | 46 | 196 | 0.0 | 0.0 | 0.00 | 0.00 | 0.00 | 92 | 1023.2 |
| 20260509113021 | 46 | 196 | 0.0 | 0.0 | 0.00 | 0.00 | 0.00 | 91 | 1023.2 |
| 20260509111542 | 46 | 196 | 0.0 | 0.0 | 0.00 | 0.00 | 0.00 | 91 | 1023.2 |
| 20260509110048 | 46 | 196 | 0.0 | 1.0 | 0.00 | 0.00 | 0.00 | 91 | 1023.3 |
| 20260509104533 | 46 | 196 | 0.0 | 0.0 | 0.00 | 0.00 | 0.00 | 91 | 1023.2 |
| 20260509103034 | 46 | 196 | 0.0 | 0.0 | 0.00 | 0.00 | 0.00 | 91 | 1023.1 |
| 20260509101537 | 46 | 196 | 0.0 | 1.0 | 0.00 | 0.00 | 0.00 | 91 | 1023.0 |
| 20260509100041 | 46 | 196 | 0.0 | 2.0 | 0.00 | 0.00 | 0.00 | 92 | 1022.9 |
| 20260509094526 | 45 | 196 | 0.0 | 0.0 | 0.00 | 0.00 | 0.00 | 92 | 1022.9 |
| 20260509093030 | 45 | 196 | 0.0 | 1.0 | 0.00 | 0.00 | 0.00 | 92 | 1023.0 |
| 20260509091541 | 44 | 196 | 0.0 | 1.0 | 0.00 | 0.00 | 0.00 | 92 | 1023.0 |
| 20260509090049 | 44 | 196 | 0.0 | 1.0 | 0.00 | 0.00 | 0.00 | 92 | 1023.1 |
| 20260509084535 | 43 | 196 | 0.0 | 1.0 | 0.00 | 0.00 | 0.00 | 92 | 1023.1 |
| 20260509083040 | 42 | 196 | 0.0 | 0.0 | 0.00 | 0.00 | 0.00 | 92 | 1023.3 |
| 20260509081543 | 42 | 196 | 0.0 | 1.0 | 0.00 | 0.00 | 0.00 | 92 | 1023.3 |
| 20260509080040 | 42 | 196 | 0.0 | 1.0 | 0.00 | 0.00 | 0.00 | 91 | 1023.3 |
| 20260509074526 | 42 | 196 | 0.0 | 0.0 | 0.00 | 0.00 | 0.00 | 91 | 1023.3 |
| 20260509073031 | 42 | 196 | 0.0 | 0.0 | 0.00 | 0.00 | 0.00 | 91 | 1023.3 |
| 20260509071533 | 42 | 196 | 0.0 | 0.0 | 0.00 | 0.00 | 0.00 | 91 | 1023.2 |
| 20260509070018 | 43 | 196 | 0.0 | 0.0 | 0.00 | 0.00 | 0.00 | 91 | 1023.1 |
| 20260509064523 | 43 | 196 | 0.0 | 0.0 | 0.00 | 0.00 | 0.00 | 90 | 1023.2 |
| 20260509063026 | 44 | 196 | 0.0 | 2.0 | 0.00 | 0.00 | 0.00 | 90 | 1023.1 |
| 20260509061529 | 44 | 196 | 0.0 | 0.0 | 0.00 | 0.00 | 0.00 | 90 | 1023.1 |
| 20260509060014 | 45 | 196 | 0.0 | 0.0 | 0.00 | 0.00 | 0.00 | 89 | 1023.1 |
| 20260509054525 | 46 | 196 | 0.0 | 0.0 | 0.00 | 0.00 | 0.00 | 89 | 1023.1 |
| 20260509053057 | 46 | 196 | 0.0 | 0.0 | 0.00 | 0.00 | 0.00 | 88 | 1023.0 |
| 20260509051542 | 47 | 196 | 0.0 | 0.0 | 0.00 | 0.00 | 0.00 | 87 | 1023.0 |
| 20260509050036 | 48 | 196 | 0.0 | 0.0 | 0.00 | 0.00 | 0.00 | 84 | 1023.0 |
| 20260509044524 | 50 | 196 | 0.0 | 0.0 | 0.00 | 0.00 | 0.00 | 84 | 1023.0 |
| 20260509043028 | 50 | 196 | 0.0 | 0.0 | 0.00 | 0.00 | 0.00 | 82 | 1022.9 |
| 20260509041532 | 52 | 196 | 0.0 | 1.0 | 0.00 | 0.00 | 0.00 | 80 | 1022.8 |
| 20260509040017 | 52 | 210 | 0.0 | 1.0 | 0.00 | 0.00 | 0.00 | 80 | 1022.7 |
| 20260509034520 | 53 | 210 | 0.0 | 2.0 | 0.00 | 0.00 | 0.00 | 78 | 1022.6 |
| 20260509033022 | 53 | 213 | 0.0 | 3.0 | 0.00 | 0.00 | 0.00 | 76 | 1022.5 |
| 20260509031525 | 54 | 213 | 0.0 | 3.0 | 0.00 | 0.00 | 0.00 | 75 | 1022.5 |
| 20260509030025 | 54 | 231 | 1.0 | 4.0 | 0.00 | 0.00 | 0.00 | 74 | 1022.5 |
| 20260509024514 | 55 | 220 | 1.0 | 4.0 | 0.00 | 0.00 | 0.00 | 74 | 1022.4 |
| 20260509023026 | 54 | 233 | 0.0 | 4.0 | 0.00 | 0.00 | 0.00 | 74 | 1022.3 |
| 20260509021522 | 54 | 238 | 1.0 | 5.0 | 0.00 | 0.00 | 0.00 | 74 | 1022.2 |
| 20260509020007 | 54 | 216 | 1.0 | 6.0 | 0.00 | 0.00 | 0.00 | 74 | 1022.1 |
| 20260509014520 | 55 | 197 | 1.0 | 5.0 | 0.00 | 0.00 | 0.00 | 73 | 1022.1 |
| 20260509013027 | 55 | 219 | 2.0 | 6.0 | 0.00 | 0.00 | 0.00 | 71 | 1022.1 |
| 20260509011530 | 56 | 236 | 2.0 | 5.0 | 0.00 | 0.00 | 0.00 | 69 | 1022.1 |
| 20260509010014 | 56 | 245 | 2.0 | 6.0 | 0.00 | 0.00 | 0.00 | 69 | 1022.1 |
| 20260509004526 | 56 | 245 | 3.0 | 7.0 | 0.00 | 0.00 | 0.00 | 68 | 1022.2 |
| 20260509003042 | 56 | 242 | 2.0 | 6.0 | 0.00 | 0.00 | 0.00 | 69 | 1022.2 |
| 20260509001539 | 56 | 238 | 3.0 | 7.0 | 0.00 | 0.00 | 0.00 | 69 | 1022.2 |
| 20260509000024 | 56 | 207 | 2.0 | 5.0 | 0.00 | 0.00 | 0.00 | 69 | 1022.2 |
| 20260508234529 | 56 | 238 | 2.0 | 5.0 | 0.00 | 0.00 | 0.00 | 69 | 1022.2 |
| 20260508233030 | 56 | 193 | 2.0 | 5.0 | 0.00 | 0.00 | 0.00 | 67 | 1022.1 |
| 20260508231537 | 57 | 261 | 0.0 | 3.0 | 0.00 | 0.00 | 0.00 | 69 | 1022.1 |
| 20260508230020 | 57 | 352 | 1.0 | 3.0 | 0.00 | 0.00 | 0.00 | 70 | 1022.0 |
| 20260508224523 | 56 | 352 | 0.0 | 3.0 | 0.00 | 0.00 | 0.00 | 70 | 1021.9 |
| 20260508223028 | 57 | 300 | 0.0 | 2.0 | 0.00 | 0.00 | 0.00 | 71 | 1021.9 |
| 20260508221527 | 56 | 222 | 0.0 | 5.0 | 0.00 | 0.00 | 0.00 | 70 | 1022.0 |
| 20260508220019 | 55 | 204 | 1.0 | 5.0 | 0.00 | 0.00 | 0.00 | 71 | 1022.0 |